sensor_id;sensor_type;location;lat;lon;timestamp;temperature;humidity
65864;SHT30;52639;51.180;20.460;2024-02-04T00:00:32;6.80;94.38
65864;SHT30;52639;51.180;20.460;2024-02-04T00:04:54;6.91;93.60
65864;SHT30;52639;51.180;20.460;2024-02-04T00:08:56;6.94;93.80
65864;SHT30;52639;51.180;20.460;2024-02-04T00:12:58;6.95;93.12
65864;SHT30;52639;51.180;20.460;2024-02-04T00:17:01;6.92;93.60
65864;SHT30;52639;51.180;20.460;2024-02-04T00:21:03;6.92;93.24
65864;SHT30;52639;51.180;20.460;2024-02-04T00:25:05;6.97;93.42
65864;SHT30;52639;51.180;20.460;2024-02-04T00:29:12;7.00;93.15
65864;SHT30;52639;51.180;20.460;2024-02-04T00:33:15;6.97;92.74
65864;SHT30;52639;51.180;20.460;2024-02-04T00:37:17;7.09;91.88
65864;SHT30;52639;51.180;20.460;2024-02-04T00:41:19;7.05;91.83
65864;SHT30;52639;51.180;20.460;2024-02-04T00:45:21;7.05;91.44
65864;SHT30;52639;51.180;20.460;2024-02-04T00:54:20;6.92;92.27
65864;SHT30;52639;51.180;20.460;2024-02-04T00:58:22;6.92;92.73
65864;SHT30;52639;51.180;20.460;2024-02-04T01:02:24;6.78;92.66
65864;SHT30;52639;51.180;20.460;2024-02-04T01:06:26;6.77;92.76
65864;SHT30;52639;51.180;20.460;2024-02-04T01:10:30;6.70;93.19
65864;SHT30;52639;51.180;20.460;2024-02-04T01:14:32;6.78;93.21
65864;SHT30;52639;51.180;20.460;2024-02-04T01:18:34;6.80;93.05
65864;SHT30;52639;51.180;20.460;2024-02-04T01:22:42;6.84;93.50
65864;SHT30;52639;51.180;20.460;2024-02-04T01:27:04;6.84;93.36
65864;SHT30;52639;51.180;20.460;2024-02-04T01:31:05;6.88;93.47
65864;SHT30;52639;51.180;20.460;2024-02-04T01:35:07;6.92;92.61
65864;SHT30;52639;51.180;20.460;2024-02-04T01:39:09;6.88;92.65
65864;SHT30;52639;51.180;20.460;2024-02-04T01:43:13;6.83;92.79
65864;SHT30;52639;51.180;20.460;2024-02-04T01:56:16;6.81;92.63
65864;SHT30;52639;51.180;20.460;2024-02-04T02:00:20;6.74;92.75
65864;SHT30;52639;51.180;20.460;2024-02-04T02:04:21;6.71;93.17
65864;SHT30;52639;51.180;20.460;2024-02-04T02:08:24;6.76;92.89
65864;SHT30;52639;51.180;20.460;2024-02-04T02:12:27;6.80;93.02
65864;SHT30;52639;51.180;20.460;2024-02-04T02:16:32;6.81;92.84
65864;SHT30;52639;51.180;20.460;2024-02-04T02:20:35;6.78;92.16
65864;SHT30;52639;51.180;20.460;2024-02-04T02:24:40;6.83;92.56
65864;SHT30;52639;51.180;20.460;2024-02-04T02:28:43;6.70;92.54
65864;SHT30;52639;51.180;20.460;2024-02-04T02:32:45;6.68;92.49
65864;SHT30;52639;51.180;20.460;2024-02-04T02:36:50;6.66;91.92
65864;SHT30;52639;51.180;20.460;2024-02-04T02:40:57;6.64;92.20
65864;SHT30;52639;51.180;20.460;2024-02-04T02:49:37;6.54;90.80
65864;SHT30;52639;51.180;20.460;2024-02-04T02:53:39;6.66;92.67
65864;SHT30;52639;51.180;20.460;2024-02-04T02:57:42;6.58;90.62
65864;SHT30;52639;51.180;20.460;2024-02-04T03:01:44;6.58;89.13
65864;SHT30;52639;51.180;20.460;2024-02-04T03:05:46;6.41;88.49
65864;SHT30;52639;51.180;20.460;2024-02-04T03:09:48;6.24;86.13
65864;SHT30;52639;51.180;20.460;2024-02-04T03:13:51;5.85;88.03
65864;SHT30;52639;51.180;20.460;2024-02-04T03:17:53;5.79;85.69
65864;SHT30;52639;51.180;20.460;2024-02-04T03:21:55;5.75;86.14
65864;SHT30;52639;51.180;20.460;2024-02-04T03:25:57;5.68;86.81
65864;SHT30;52639;51.180;20.460;2024-02-04T03:30:00;5.39;87.55
65864;SHT30;52639;51.180;20.460;2024-02-04T03:38:29;5.05;86.43
65864;SHT30;52639;51.180;20.460;2024-02-04T03:42:31;5.03;89.35
65864;SHT30;52639;51.180;20.460;2024-02-04T03:46:34;4.81;86.98
65864;SHT30;52639;51.180;20.460;2024-02-04T03:50:37;4.88;88.30
65864;SHT30;52639;51.180;20.460;2024-02-04T03:54:39;4.93;88.01
65864;SHT30;52639;51.180;20.460;2024-02-04T03:58:41;4.98;88.18
65864;SHT30;52639;51.180;20.460;2024-02-04T04:02:44;4.90;88.63
65864;SHT30;52639;51.180;20.460;2024-02-04T04:06:46;5.00;89.07
65864;SHT30;52639;51.180;20.460;2024-02-04T04:10:49;5.31;89.93
65864;SHT30;52639;51.180;20.460;2024-02-04T04:14:52;5.30;88.48
65864;SHT30;52639;51.180;20.460;2024-02-04T04:18:56;5.11;87.97
65864;SHT30;52639;51.180;20.460;2024-02-04T04:22:59;5.10;88.13
65864;SHT30;52639;51.180;20.460;2024-02-04T04:27:00;5.03;89.77
65864;SHT30;52639;51.180;20.460;2024-02-04T04:31:02;5.01;89.11
65864;SHT30;52639;51.180;20.460;2024-02-04T04:35:06;4.94;88.17
65864;SHT30;52639;51.180;20.460;2024-02-04T04:39:08;4.88;87.97
65864;SHT30;52639;51.180;20.460;2024-02-04T04:43:10;4.67;88.50
65864;SHT30;52639;51.180;20.460;2024-02-04T04:47:12;4.70;89.46
65864;SHT30;52639;51.180;20.460;2024-02-04T04:51:15;4.42;88.94
65864;SHT30;52639;51.180;20.460;2024-02-04T04:55:18;4.29;88.76
65864;SHT30;52639;51.180;20.460;2024-02-04T04:59:20;4.22;88.59
65864;SHT30;52639;51.180;20.460;2024-02-04T05:03:22;4.03;88.40
65864;SHT30;52639;51.180;20.460;2024-02-04T05:07:25;4.03;89.35
65864;SHT30;52639;51.180;20.460;2024-02-04T05:11:27;3.95;88.89
65864;SHT30;52639;51.180;20.460;2024-02-04T05:15:29;3.91;89.41
65864;SHT30;52639;51.180;20.460;2024-02-04T05:19:31;3.79;89.91
65864;SHT30;52639;51.180;20.460;2024-02-04T05:23:36;3.74;90.70
65864;SHT30;52639;51.180;20.460;2024-02-04T05:27:38;3.78;91.19
65864;SHT30;52639;51.180;20.460;2024-02-04T05:31:40;3.79;90.45
65864;SHT30;52639;51.180;20.460;2024-02-04T05:35:42;3.74;90.75
65864;SHT30;52639;51.180;20.460;2024-02-04T05:39:45;3.65;90.79
65864;SHT30;52639;51.180;20.460;2024-02-04T05:43:47;3.61;91.16
65864;SHT30;52639;51.180;20.460;2024-02-04T05:47:49;3.55;91.32
65864;SHT30;52639;51.180;20.460;2024-02-04T05:51:51;3.53;91.60
65864;SHT30;52639;51.180;20.460;2024-02-04T05:55:55;3.51;91.33
65864;SHT30;52639;51.180;20.460;2024-02-04T05:59:56;3.48;91.87
65864;SHT30;52639;51.180;20.460;2024-02-04T06:04:00;3.43;92.06
65864;SHT30;52639;51.180;20.460;2024-02-04T06:08:02;3.45;91.45
65864;SHT30;52639;51.180;20.460;2024-02-04T06:12:05;3.33;92.11
65864;SHT30;52639;51.180;20.460;2024-02-04T06:20:35;3.44;91.77
65864;SHT30;52639;51.180;20.460;2024-02-04T06:24:37;3.48;91.48
65864;SHT30;52639;51.180;20.460;2024-02-04T06:28:42;3.44;91.20
65864;SHT30;52639;51.180;20.460;2024-02-04T06:32:47;3.43;91.51
65864;SHT30;52639;51.180;20.460;2024-02-04T06:36:49;3.63;91.85
65864;SHT30;52639;51.180;20.460;2024-02-04T06:40:51;3.81;91.61
65864;SHT30;52639;51.180;20.460;2024-02-04T06:44:54;4.02;91.45
65864;SHT30;52639;51.180;20.460;2024-02-04T06:48:56;4.18;90.68
65864;SHT30;52639;51.180;20.460;2024-02-04T06:52:58;4.30;90.54
65864;SHT30;52639;51.180;20.460;2024-02-04T06:57:00;4.35;89.93
65864;SHT30;52639;51.180;20.460;2024-02-04T07:01:03;4.39;90.06
65864;SHT30;52639;51.180;20.460;2024-02-04T07:05:05;4.48;89.48
65864;SHT30;52639;51.180;20.460;2024-02-04T07:09:08;4.52;90.07
65864;SHT30;52639;51.180;20.460;2024-02-04T07:13:10;4.54;90.76
65864;SHT30;52639;51.180;20.460;2024-02-04T07:17:14;4.74;87.85
65864;SHT30;52639;51.180;20.460;2024-02-04T07:21:16;4.97;88.33
65864;SHT30;52639;51.180;20.460;2024-02-04T07:25:18;5.37;87.65
65864;SHT30;52639;51.180;20.460;2024-02-04T07:29:20;5.47;88.22
65864;SHT30;52639;51.180;20.460;2024-02-04T07:33:24;5.23;85.43
65864;SHT30;52639;51.180;20.460;2024-02-04T07:37:26;5.07;88.20
65864;SHT30;52639;51.180;20.460;2024-02-04T07:45:54;5.18;88.80
65864;SHT30;52639;51.180;20.460;2024-02-04T07:49:57;5.24;89.59
65864;SHT30;52639;51.180;20.460;2024-02-04T07:53:59;5.17;87.22
65864;SHT30;52639;51.180;20.460;2024-02-04T07:58:01;5.15;87.80
65864;SHT30;52639;51.180;20.460;2024-02-04T08:02:03;5.31;85.37
65864;SHT30;52639;51.180;20.460;2024-02-04T08:06:08;5.62;85.21
65864;SHT30;52639;51.180;20.460;2024-02-04T08:10:10;5.63;87.41
65864;SHT30;52639;51.180;20.460;2024-02-04T08:14:14;5.54;85.55
65864;SHT30;52639;51.180;20.460;2024-02-04T08:18:17;5.59;85.54
65864;SHT30;52639;51.180;20.460;2024-02-04T08:22:21;5.65;84.13
65864;SHT30;52639;51.180;20.460;2024-02-04T08:26:22;5.76;81.43
65864;SHT30;52639;51.180;20.460;2024-02-04T08:30:24;5.82;83.74
65864;SHT30;52639;51.180;20.460;2024-02-04T08:34:33;5.83;84.07
65864;SHT30;52639;51.180;20.460;2024-02-04T08:38:37;5.95;83.54
65864;SHT30;52639;51.180;20.460;2024-02-04T08:42:39;6.01;81.47
65864;SHT30;52639;51.180;20.460;2024-02-04T08:46:41;6.09;81.23
65864;SHT30;52639;51.180;20.460;2024-02-04T08:50:43;6.13;82.36
65864;SHT30;52639;51.180;20.460;2024-02-04T08:54:46;6.38;81.98
65864;SHT30;52639;51.180;20.460;2024-02-04T08:58:48;6.34;81.69
65864;SHT30;52639;51.180;20.460;2024-02-04T09:02:50;6.30;84.93
65864;SHT30;52639;51.180;20.460;2024-02-04T09:06:52;6.34;82.81
65864;SHT30;52639;51.180;20.460;2024-02-04T09:10:55;6.44;80.31
65864;SHT30;52639;51.180;20.460;2024-02-04T09:14:57;6.26;81.69
65864;SHT30;52639;51.180;20.460;2024-02-04T09:18:59;6.23;84.03
65864;SHT30;52639;51.180;20.460;2024-02-04T09:23:01;5.98;81.15
65864;SHT30;52639;51.180;20.460;2024-02-04T09:31:54;6.44;81.05
65864;SHT30;52639;51.180;20.460;2024-02-04T09:35:56;6.51;79.68
65864;SHT30;52639;51.180;20.460;2024-02-04T09:39:58;6.51;79.33
65864;SHT30;52639;51.180;20.460;2024-02-04T09:44:00;6.67;78.31
65864;SHT30;52639;51.180;20.460;2024-02-04T09:48:05;6.91;81.17
65864;SHT30;52639;51.180;20.460;2024-02-04T09:52:08;6.95;79.40
65864;SHT30;52639;51.180;20.460;2024-02-04T09:56:10;7.01;77.21
65864;SHT30;52639;51.180;20.460;2024-02-04T10:00:12;7.07;75.54
65864;SHT30;52639;51.180;20.460;2024-02-04T10:08:22;7.04;79.72
65864;SHT30;52639;51.180;20.460;2024-02-04T10:12:24;7.09;81.49
65864;SHT30;52639;51.180;20.460;2024-02-04T10:16:26;7.21;79.88
65864;SHT30;52639;51.180;20.460;2024-02-04T10:20:29;7.39;80.57
65864;SHT30;52639;51.180;20.460;2024-02-04T10:24:32;7.35;74.92
65864;SHT30;52639;51.180;20.460;2024-02-04T10:28:34;7.59;77.37
65864;SHT30;52639;51.180;20.460;2024-02-04T10:32:36;7.67;77.14
65864;SHT30;52639;51.180;20.460;2024-02-04T10:41:05;7.43;75.17
65864;SHT30;52639;51.180;20.460;2024-02-04T10:45:09;7.22;78.47
65864;SHT30;52639;51.180;20.460;2024-02-04T10:49:12;6.92;75.81
65864;SHT30;52639;51.180;20.460;2024-02-04T10:57:42;6.64;79.57
65864;SHT30;52639;51.180;20.460;2024-02-04T11:01:45;6.63;77.65
65864;SHT30;52639;51.180;20.460;2024-02-04T11:05:49;6.67;78.97
65864;SHT30;52639;51.180;20.460;2024-02-04T11:09:51;6.76;80.38
65864;SHT30;52639;51.180;20.460;2024-02-04T11:13:56;7.01;81.24
65864;SHT30;52639;51.180;20.460;2024-02-04T11:18:04;7.25;81.28
65864;SHT30;52639;51.180;20.460;2024-02-04T11:22:16;7.12;80.51
65864;SHT30;52639;51.180;20.460;2024-02-04T11:26:20;7.19;78.13
65864;SHT30;52639;51.180;20.460;2024-02-04T11:30:23;7.09;78.01
65864;SHT30;52639;51.180;20.460;2024-02-04T11:34:25;7.04;79.70
65864;SHT30;52639;51.180;20.460;2024-02-04T11:38:31;6.84;79.57
65864;SHT30;52639;51.180;20.460;2024-02-04T11:42:33;6.74;80.07
65864;SHT30;52639;51.180;20.460;2024-02-04T11:46:36;6.78;78.98
65864;SHT30;52639;51.180;20.460;2024-02-04T11:50:38;6.81;79.15
65864;SHT30;52639;51.180;20.460;2024-02-04T11:54:40;6.78;79.58
65864;SHT30;52639;51.180;20.460;2024-02-04T11:58:42;6.83;80.31
65864;SHT30;52639;51.180;20.460;2024-02-04T12:02:46;6.83;79.00
65864;SHT30;52639;51.180;20.460;2024-02-04T12:06:48;6.68;79.23
65864;SHT30;52639;51.180;20.460;2024-02-04T12:10:51;6.78;80.82
65864;SHT30;52639;51.180;20.460;2024-02-04T12:14:53;7.01;79.23
65864;SHT30;52639;51.180;20.460;2024-02-04T12:18:57;7.02;80.72
65864;SHT30;52639;51.180;20.460;2024-02-04T12:22:59;7.02;80.83
65864;SHT30;52639;51.180;20.460;2024-02-04T12:27:01;7.00;81.09
65864;SHT30;52639;51.180;20.460;2024-02-04T12:31:03;7.01;79.28
65864;SHT30;52639;51.180;20.460;2024-02-04T12:35:07;7.26;79.36
65864;SHT30;52639;51.180;20.460;2024-02-04T12:39:11;7.58;79.12
65864;SHT30;52639;51.180;20.460;2024-02-04T12:43:13;7.63;77.81
65864;SHT30;52639;51.180;20.460;2024-02-04T12:47:18;7.76;79.83
65864;SHT30;52639;51.180;20.460;2024-02-04T12:51:25;7.82;79.40
65864;SHT30;52639;51.180;20.460;2024-02-04T12:55:27;7.69;81.74
65864;SHT30;52639;51.180;20.460;2024-02-04T12:59:30;7.56;79.17
65864;SHT30;52639;51.180;20.460;2024-02-04T13:03:32;7.45;75.52
65864;SHT30;52639;51.180;20.460;2024-02-04T13:07:35;7.56;78.68
65864;SHT30;52639;51.180;20.460;2024-02-04T13:11:38;7.61;74.38
65864;SHT30;52639;51.180;20.460;2024-02-04T13:15:41;7.62;74.69
65864;SHT30;52639;51.180;20.460;2024-02-04T13:19:43;7.58;76.96
65864;SHT30;52639;51.180;20.460;2024-02-04T13:23:46;7.59;78.42
65864;SHT30;52639;51.180;20.460;2024-02-04T13:27:48;7.55;76.74
65864;SHT30;52639;51.180;20.460;2024-02-04T13:31:51;7.53;78.57
65864;SHT30;52639;51.180;20.460;2024-02-04T13:35:52;7.38;78.81
65864;SHT30;52639;51.180;20.460;2024-02-04T13:39:56;7.28;79.73
65864;SHT30;52639;51.180;20.460;2024-02-04T13:43:58;7.16;82.14
65864;SHT30;52639;51.180;20.460;2024-02-04T13:48:00;7.18;78.85
65864;SHT30;52639;51.180;20.460;2024-02-04T13:56:27;7.02;78.62
65864;SHT30;52639;51.180;20.460;2024-02-04T14:00:30;7.02;79.24
65864;SHT30;52639;51.180;20.460;2024-02-04T14:04:32;7.07;76.33
65864;SHT30;52639;51.180;20.460;2024-02-04T14:08:34;7.02;75.36
65864;SHT30;52639;51.180;20.460;2024-02-04T14:12:37;7.01;74.86
65864;SHT30;52639;51.180;20.460;2024-02-04T14:16:40;6.98;77.57
65864;SHT30;52639;51.180;20.460;2024-02-04T14:20:42;6.94;76.57
65864;SHT30;52639;51.180;20.460;2024-02-04T14:24:44;6.88;78.20
65864;SHT30;52639;51.180;20.460;2024-02-04T14:28:48;6.87;76.89
65864;SHT30;52639;51.180;20.460;2024-02-04T14:32:50;6.83;77.87
65864;SHT30;52639;51.180;20.460;2024-02-04T14:41:15;6.84;79.04
65864;SHT30;52639;51.180;20.460;2024-02-04T14:45:19;6.80;77.84
65864;SHT30;52639;51.180;20.460;2024-02-04T14:49:21;6.77;76.84
65864;SHT30;52639;51.180;20.460;2024-02-04T14:53:22;6.78;78.91
65864;SHT30;52639;51.180;20.460;2024-02-04T14:57:24;6.66;77.01
65864;SHT30;52639;51.180;20.460;2024-02-04T15:01:28;6.61;77.18
65864;SHT30;52639;51.180;20.460;2024-02-04T15:05:30;6.60;77.53
65864;SHT30;52639;51.180;20.460;2024-02-04T15:09:32;6.60;78.10
65864;SHT30;52639;51.180;20.460;2024-02-04T15:13:34;6.48;78.08
65864;SHT30;52639;51.180;20.460;2024-02-04T15:17:38;6.37;78.57
65864;SHT30;52639;51.180;20.460;2024-02-04T15:21:46;6.34;78.38
65864;SHT30;52639;51.180;20.460;2024-02-04T15:25:48;6.37;78.43
65864;SHT30;52639;51.180;20.460;2024-02-04T15:29:50;6.36;77.65
65864;SHT30;52639;51.180;20.460;2024-02-04T15:33:54;6.32;78.55
65864;SHT30;52639;51.180;20.460;2024-02-04T15:37:56;6.27;79.29
65864;SHT30;52639;51.180;20.460;2024-02-04T15:41:59;6.19;80.69
65864;SHT30;52639;51.180;20.460;2024-02-04T15:46:01;6.26;77.13
65864;SHT30;52639;51.180;20.460;2024-02-04T15:50:08;6.24;80.46
65864;SHT30;52639;51.180;20.460;2024-02-04T15:54:10;6.33;76.30
65864;SHT30;52639;51.180;20.460;2024-02-04T15:58:12;6.20;77.54
65864;SHT30;52639;51.180;20.460;2024-02-04T16:02:15;6.20;79.95
65864;SHT30;52639;51.180;20.460;2024-02-04T16:06:19;6.17;77.00
65864;SHT30;52639;51.180;20.460;2024-02-04T16:10:21;6.23;76.28
65864;SHT30;52639;51.180;20.460;2024-02-04T16:14:24;6.32;78.42
65864;SHT30;52639;51.180;20.460;2024-02-04T16:18:26;6.27;79.96
65864;SHT30;52639;51.180;20.460;2024-02-04T16:22:32;6.19;78.68
65864;SHT30;52639;51.180;20.460;2024-02-04T16:26:34;6.20;78.05
65864;SHT30;52639;51.180;20.460;2024-02-04T16:30:35;6.16;81.21
65864;SHT30;52639;51.180;20.460;2024-02-04T16:34:37;6.07;79.22
65864;SHT30;52639;51.180;20.460;2024-02-04T16:38:41;6.09;77.75
65864;SHT30;52639;51.180;20.460;2024-02-04T16:42:44;6.10;77.15
65864;SHT30;52639;51.180;20.460;2024-02-04T16:46:46;6.03;77.44
65864;SHT30;52639;51.180;20.460;2024-02-04T16:50:51;6.06;78.05
65864;SHT30;52639;51.180;20.460;2024-02-04T16:54:54;5.99;78.45
65864;SHT30;52639;51.180;20.460;2024-02-04T17:03:19;5.91;79.76
65864;SHT30;52639;51.180;20.460;2024-02-04T17:11:48;5.91;79.33
65864;SHT30;52639;51.180;20.460;2024-02-04T17:15:50;5.88;78.67
65864;SHT30;52639;51.180;20.460;2024-02-04T17:20:05;5.82;82.13
65864;SHT30;52639;51.180;20.460;2024-02-04T17:24:14;5.83;77.73
65864;SHT30;52639;51.180;20.460;2024-02-04T17:32:30;5.89;77.69
65864;SHT30;52639;51.180;20.460;2024-02-04T17:36:32;5.91;78.93
65864;SHT30;52639;51.180;20.460;2024-02-04T17:40:34;5.93;77.40
65864;SHT30;52639;51.180;20.460;2024-02-04T17:44:36;6.02;76.62
65864;SHT30;52639;51.180;20.460;2024-02-04T17:48:46;5.96;77.94
65864;SHT30;52639;51.180;20.460;2024-02-04T17:52:48;5.99;77.23
65864;SHT30;52639;51.180;20.460;2024-02-04T17:56:50;6.06;81.52
65864;SHT30;52639;51.180;20.460;2024-02-04T18:00:53;6.01;78.44
65864;SHT30;52639;51.180;20.460;2024-02-04T18:04:58;6.10;78.12
65864;SHT30;52639;51.180;20.460;2024-02-04T18:09:01;6.09;80.39
65864;SHT30;52639;51.180;20.460;2024-02-04T18:13:03;6.02;79.85
65864;SHT30;52639;51.180;20.460;2024-02-04T18:17:06;6.02;77.47
65864;SHT30;52639;51.180;20.460;2024-02-04T18:21:16;6.13;78.89
65864;SHT30;52639;51.180;20.460;2024-02-04T18:25:18;6.07;76.51
65864;SHT30;52639;51.180;20.460;2024-02-04T18:29:20;5.95;79.21
65864;SHT30;52639;51.180;20.460;2024-02-04T18:33:24;6.06;78.07
65864;SHT30;52639;51.180;20.460;2024-02-04T18:37:28;6.01;78.78
65864;SHT30;52639;51.180;20.460;2024-02-04T18:46:00;6.03;76.96
65864;SHT30;52639;51.180;20.460;2024-02-04T18:54:16;5.92;77.39
65864;SHT30;52639;51.180;20.460;2024-02-04T18:58:18;5.96;77.09
65864;SHT30;52639;51.180;20.460;2024-02-04T19:02:20;5.89;77.71
65864;SHT30;52639;51.180;20.460;2024-02-04T19:06:26;5.95;79.89
65864;SHT30;52639;51.180;20.460;2024-02-04T19:10:29;5.96;79.31
65864;SHT30;52639;51.180;20.460;2024-02-04T19:14:31;5.95;80.20
65864;SHT30;52639;51.180;20.460;2024-02-04T19:18:36;5.95;79.36
65864;SHT30;52639;51.180;20.460;2024-02-04T19:22:40;5.91;78.07
65864;SHT30;52639;51.180;20.460;2024-02-04T19:26:43;6.02;77.27
65864;SHT30;52639;51.180;20.460;2024-02-04T19:30:47;6.07;77.28
65864;SHT30;52639;51.180;20.460;2024-02-04T19:34:51;6.03;76.87
65864;SHT30;52639;51.180;20.460;2024-02-04T19:38:53;6.06;79.43
65864;SHT30;52639;51.180;20.460;2024-02-04T19:42:57;6.01;80.02
65864;SHT30;52639;51.180;20.460;2024-02-04T19:46:59;6.02;77.57
65864;SHT30;52639;51.180;20.460;2024-02-04T19:51:01;6.05;81.64
65864;SHT30;52639;51.180;20.460;2024-02-04T19:55:04;6.03;80.20
65864;SHT30;52639;51.180;20.460;2024-02-04T19:59:07;6.05;77.98
65864;SHT30;52639;51.180;20.460;2024-02-04T20:03:11;6.10;78.08
65864;SHT30;52639;51.180;20.460;2024-02-04T20:07:16;6.01;79.07
65864;SHT30;52639;51.180;20.460;2024-02-04T20:11:18;6.03;77.00
65864;SHT30;52639;51.180;20.460;2024-02-04T20:15:21;5.96;77.74
65864;SHT30;52639;51.180;20.460;2024-02-04T20:19:26;5.93;79.64
65864;SHT30;52639;51.180;20.460;2024-02-04T20:23:28;5.82;79.97
65864;SHT30;52639;51.180;20.460;2024-02-04T20:27:36;5.89;79.41
65864;SHT30;52639;51.180;20.460;2024-02-04T20:31:40;5.83;80.97
65864;SHT30;52639;51.180;20.460;2024-02-04T20:40:51;5.91;80.50
65864;SHT30;52639;51.180;20.460;2024-02-04T20:44:54;5.96;79.85
65864;SHT30;52639;51.180;20.460;2024-02-04T20:53:32;5.91;80.00
65864;SHT30;52639;51.180;20.460;2024-02-04T20:57:35;5.86;79.41
65864;SHT30;52639;51.180;20.460;2024-02-04T21:01:37;5.93;80.62
65864;SHT30;52639;51.180;20.460;2024-02-04T21:05:39;5.99;78.80
65864;SHT30;52639;51.180;20.460;2024-02-04T21:09:42;6.02;78.31
65864;SHT30;52639;51.180;20.460;2024-02-04T21:13:44;6.02;78.90
65864;SHT30;52639;51.180;20.460;2024-02-04T21:17:46;6.03;78.47
65864;SHT30;52639;51.180;20.460;2024-02-04T21:26:28;6.02;80.93
65864;SHT30;52639;51.180;20.460;2024-02-04T21:30:30;5.85;81.34
65864;SHT30;52639;51.180;20.460;2024-02-04T21:38:41;5.61;83.34
65864;SHT30;52639;51.180;20.460;2024-02-04T21:42:45;5.47;84.08
65864;SHT30;52639;51.180;20.460;2024-02-04T21:46:47;5.34;84.62
65864;SHT30;52639;51.180;20.460;2024-02-04T21:50:49;5.31;85.53
65864;SHT30;52639;51.180;20.460;2024-02-04T21:54:52;5.27;86.21
65864;SHT30;52639;51.180;20.460;2024-02-04T21:58:55;5.18;86.27
65864;SHT30;52639;51.180;20.460;2024-02-04T22:02:57;5.07;88.13
65864;SHT30;52639;51.180;20.460;2024-02-04T22:06:59;5.07;87.99
65864;SHT30;52639;51.180;20.460;2024-02-04T22:11:01;5.07;88.23
65864;SHT30;52639;51.180;20.460;2024-02-04T22:15:05;5.04;87.63
65864;SHT30;52639;51.180;20.460;2024-02-04T22:19:08;4.98;88.27
65864;SHT30;52639;51.180;20.460;2024-02-04T22:23:10;4.93;87.90
65864;SHT30;52639;51.180;20.460;2024-02-04T22:27:13;4.87;89.32
65864;SHT30;52639;51.180;20.460;2024-02-04T22:31:16;4.84;89.14
65864;SHT30;52639;51.180;20.460;2024-02-04T22:35:19;4.80;89.22
65864;SHT30;52639;51.180;20.460;2024-02-04T22:39:21;4.72;90.18
65864;SHT30;52639;51.180;20.460;2024-02-04T22:43:22;4.66;90.43
65864;SHT30;52639;51.180;20.460;2024-02-04T22:47:26;4.56;91.05
65864;SHT30;52639;51.180;20.460;2024-02-04T22:51:28;4.56;91.73
65864;SHT30;52639;51.180;20.460;2024-02-04T22:55:30;4.52;92.51
65864;SHT30;52639;51.180;20.460;2024-02-04T22:59:32;4.46;92.06
65864;SHT30;52639;51.180;20.460;2024-02-04T23:03:35;4.46;92.64
65864;SHT30;52639;51.180;20.460;2024-02-04T23:07:44;4.49;92.11
65864;SHT30;52639;51.180;20.460;2024-02-04T23:11:46;4.46;92.62
65864;SHT30;52639;51.180;20.460;2024-02-04T23:15:47;4.42;92.70
65864;SHT30;52639;51.180;20.460;2024-02-04T23:19:50;4.39;92.79
65864;SHT30;52639;51.180;20.460;2024-02-04T23:23:52;4.36;93.32
65864;SHT30;52639;51.180;20.460;2024-02-04T23:27:54;4.36;92.91
65864;SHT30;52639;51.180;20.460;2024-02-04T23:31:56;4.36;93.68
65864;SHT30;52639;51.180;20.460;2024-02-04T23:41:02;4.39;92.64
65864;SHT30;52639;51.180;20.460;2024-02-04T23:45:05;4.40;93.51
65864;SHT30;52639;51.180;20.460;2024-02-04T23:49:08;4.42;93.92
65864;SHT30;52639;51.180;20.460;2024-02-04T23:53:10;4.40;94.40
